sensor_id;sensor_type;location;lat;lon;timestamp;temperature;humidity
9437;DHT22;4757;59.334;18.034;2022-09-09T00:06:44;12.00;99.90
9437;DHT22;4757;59.334;18.034;2022-09-09T00:09:19;12.10;99.90
9437;DHT22;4757;59.334;18.034;2022-09-09T00:17:12;12.20;99.90
9437;DHT22;4757;59.334;18.034;2022-09-09T00:19:55;12.30;99.90
9437;DHT22;4757;59.334;18.034;2022-09-09T00:22:23;12.30;99.90
9437;DHT22;4757;59.334;18.034;2022-09-09T00:24:54;12.30;99.90
9437;DHT22;4757;59.334;18.034;2022-09-09T00:32:47;12.40;99.90
9437;DHT22;4757;59.334;18.034;2022-09-09T00:35:24;12.50;99.90
9437;DHT22;4757;59.334;18.034;2022-09-09T00:37:56;12.50;99.90
9437;DHT22;4757;59.334;18.034;2022-09-09T00:40:37;12.50;99.90
9437;DHT22;4757;59.334;18.034;2022-09-09T00:54:17;12.60;99.90
9437;DHT22;4757;59.334;18.034;2022-09-09T00:57:40;12.70;99.90
9437;DHT22;4757;59.334;18.034;2022-09-09T01:05:39;12.70;99.90
9437;DHT22;4757;59.334;18.034;2022-09-09T01:17:23;12.80;99.90
9437;DHT22;4757;59.334;18.034;2022-09-09T01:20:08;12.80;99.90
9437;DHT22;4757;59.334;18.034;2022-09-09T01:28:22;12.90;99.90
9437;DHT22;4757;59.334;18.034;2022-09-09T01:30:52;12.90;99.90
9437;DHT22;4757;59.334;18.034;2022-09-09T01:33:19;12.80;99.90
9437;DHT22;4757;59.334;18.034;2022-09-09T01:38:29;12.80;99.90
9437;DHT22;4757;59.334;18.034;2022-09-09T01:40:56;12.90;99.90
9437;DHT22;4757;59.334;18.034;2022-09-09T01:43:25;12.80;99.90
9437;DHT22;4757;59.334;18.034;2022-09-09T01:45:54;12.80;99.90
9437;DHT22;4757;59.334;18.034;2022-09-09T01:48:24;12.80;99.90
9437;DHT22;4757;59.334;18.034;2022-09-09T01:50:51;12.90;99.90
9437;DHT22;4757;59.334;18.034;2022-09-09T01:53:20;12.90;99.90
9437;DHT22;4757;59.334;18.034;2022-09-09T01:58:40;13.00;99.90
9437;DHT22;4757;59.334;18.034;2022-09-09T02:01:33;13.00;99.90
9437;DHT22;4757;59.334;18.034;2022-09-09T02:04:08;12.90;99.90
9437;DHT22;4757;59.334;18.034;2022-09-09T02:06:39;12.90;99.90
9437;DHT22;4757;59.334;18.034;2022-09-09T02:09:10;12.90;99.90
9437;DHT22;4757;59.334;18.034;2022-09-09T02:11:40;12.90;99.90
9437;DHT22;4757;59.334;18.034;2022-09-09T02:14:14;12.90;99.90
9437;DHT22;4757;59.334;18.034;2022-09-09T02:16:51;12.90;99.90
9437;DHT22;4757;59.334;18.034;2022-09-09T02:19:27;12.90;99.90
9437;DHT22;4757;59.334;18.034;2022-09-09T02:21:56;12.90;99.90
9437;DHT22;4757;59.334;18.034;2022-09-09T02:24:25;13.00;99.90
9437;DHT22;4757;59.334;18.034;2022-09-09T02:26:53;12.90;99.90
9437;DHT22;4757;59.334;18.034;2022-09-09T02:29:32;13.00;99.90
9437;DHT22;4757;59.334;18.034;2022-09-09T02:32:03;13.00;99.90
9437;DHT22;4757;59.334;18.034;2022-09-09T02:34:36;13.00;99.90
9437;DHT22;4757;59.334;18.034;2022-09-09T02:37:08;13.00;99.90
9437;DHT22;4757;59.334;18.034;2022-09-09T02:39:36;13.00;99.90
9437;DHT22;4757;59.334;18.034;2022-09-09T02:42:06;13.00;99.90
9437;DHT22;4757;59.334;18.034;2022-09-09T02:44:35;13.00;99.90
9437;DHT22;4757;59.334;18.034;2022-09-09T02:47:25;13.10;99.90
9437;DHT22;4757;59.334;18.034;2022-09-09T02:50:17;13.10;99.90
9437;DHT22;4757;59.334;18.034;2022-09-09T02:52:56;13.10;99.90
9437;DHT22;4757;59.334;18.034;2022-09-09T02:55:39;13.10;99.90
9437;DHT22;4757;59.334;18.034;2022-09-09T02:58:12;13.10;99.90
9437;DHT22;4757;59.334;18.034;2022-09-09T03:00:40;13.10;99.90
9437;DHT22;4757;59.334;18.034;2022-09-09T03:03:08;13.10;99.90
9437;DHT22;4757;59.334;18.034;2022-09-09T03:05:37;13.10;99.90
9437;DHT22;4757;59.334;18.034;2022-09-09T03:08:05;13.10;99.90
9437;DHT22;4757;59.334;18.034;2022-09-09T03:10:33;13.10;99.90
9437;DHT22;4757;59.334;18.034;2022-09-09T03:13:00;13.10;99.90
9437;DHT22;4757;59.334;18.034;2022-09-09T03:15:28;13.10;99.90
9437;DHT22;4757;59.334;18.034;2022-09-09T03:17:57;13.10;99.90
9437;DHT22;4757;59.334;18.034;2022-09-09T03:20:25;13.10;99.90
9437;DHT22;4757;59.334;18.034;2022-09-09T03:22:53;13.10;99.90
9437;DHT22;4757;59.334;18.034;2022-09-09T03:25:21;13.10;99.90
9437;DHT22;4757;59.334;18.034;2022-09-09T03:27:50;13.20;99.90
9437;DHT22;4757;59.334;18.034;2022-09-09T03:30:25;13.10;99.90
9437;DHT22;4757;59.334;18.034;2022-09-09T03:32:53;13.10;99.90
9437;DHT22;4757;59.334;18.034;2022-09-09T03:35:20;13.10;99.90
9437;DHT22;4757;59.334;18.034;2022-09-09T03:37:47;13.10;99.90
9437;DHT22;4757;59.334;18.034;2022-09-09T03:40:14;13.10;99.90
9437;DHT22;4757;59.334;18.034;2022-09-09T03:42:41;13.10;99.90
9437;DHT22;4757;59.334;18.034;2022-09-09T03:45:09;13.10;99.90
9437;DHT22;4757;59.334;18.034;2022-09-09T03:47:37;13.10;99.90
9437;DHT22;4757;59.334;18.034;2022-09-09T03:50:06;13.10;99.90
9437;DHT22;4757;59.334;18.034;2022-09-09T03:52:40;13.10;99.90
9437;DHT22;4757;59.334;18.034;2022-09-09T03:55:08;13.10;99.90
9437;DHT22;4757;59.334;18.034;2022-09-09T03:57:36;13.10;99.90
9437;DHT22;4757;59.334;18.034;2022-09-09T04:00:06;13.10;99.90
9437;DHT22;4757;59.334;18.034;2022-09-09T04:02:33;13.20;99.90
9437;DHT22;4757;59.334;18.034;2022-09-09T04:05:00;13.20;99.90
9437;DHT22;4757;59.334;18.034;2022-09-09T04:07:28;13.20;99.90
9437;DHT22;4757;59.334;18.034;2022-09-09T04:09:55;13.20;99.90
9437;DHT22;4757;59.334;18.034;2022-09-09T04:12:22;13.20;99.90
9437;DHT22;4757;59.334;18.034;2022-09-09T04:14:49;13.20;99.90
9437;DHT22;4757;59.334;18.034;2022-09-09T04:17:16;13.30;99.90
9437;DHT22;4757;59.334;18.034;2022-09-09T04:19:44;13.30;99.90
9437;DHT22;4757;59.334;18.034;2022-09-09T04:22:11;13.30;99.90
9437;DHT22;4757;59.334;18.034;2022-09-09T04:24:38;13.30;99.90
9437;DHT22;4757;59.334;18.034;2022-09-09T04:27:05;13.30;99.90
9437;DHT22;4757;59.334;18.034;2022-09-09T04:29:32;13.40;99.90
9437;DHT22;4757;59.334;18.034;2022-09-09T04:32:00;13.40;99.90
9437;DHT22;4757;59.334;18.034;2022-09-09T04:34:27;13.50;99.90
9437;DHT22;4757;59.334;18.034;2022-09-09T04:36:55;13.50;99.90
9437;DHT22;4757;59.334;18.034;2022-09-09T04:39:22;13.40;99.90
9437;DHT22;4757;59.334;18.034;2022-09-09T04:41:49;13.50;99.90
9437;DHT22;4757;59.334;18.034;2022-09-09T04:44:16;13.60;99.90
9437;DHT22;4757;59.334;18.034;2022-09-09T04:46:43;13.50;99.90
9437;DHT22;4757;59.334;18.034;2022-09-09T04:49:11;13.60;99.90
9437;DHT22;4757;59.334;18.034;2022-09-09T04:51:41;13.50;99.90
9437;DHT22;4757;59.334;18.034;2022-09-09T04:54:07;13.60;99.90
9437;DHT22;4757;59.334;18.034;2022-09-09T04:56:34;13.70;99.90
9437;DHT22;4757;59.334;18.034;2022-09-09T04:59:03;13.70;99.90
9437;DHT22;4757;59.334;18.034;2022-09-09T05:01:30;13.70;99.90
9437;DHT22;4757;59.334;18.034;2022-09-09T05:03:57;13.70;99.90
9437;DHT22;4757;59.334;18.034;2022-09-09T05:06:24;13.70;99.90
9437;DHT22;4757;59.334;18.034;2022-09-09T05:08:52;13.80;99.90
9437;DHT22;4757;59.334;18.034;2022-09-09T05:11:27;13.90;99.90
9437;DHT22;4757;59.334;18.034;2022-09-09T05:13:54;13.90;99.90
9437;DHT22;4757;59.334;18.034;2022-09-09T05:16:22;13.90;99.90
9437;DHT22;4757;59.334;18.034;2022-09-09T05:18:49;13.90;99.90
9437;DHT22;4757;59.334;18.034;2022-09-09T05:21:21;13.90;99.90
9437;DHT22;4757;59.334;18.034;2022-09-09T05:23:49;14.00;99.90
9437;DHT22;4757;59.334;18.034;2022-09-09T05:26:20;14.10;99.90
9437;DHT22;4757;59.334;18.034;2022-09-09T05:28:47;14.10;99.90
9437;DHT22;4757;59.334;18.034;2022-09-09T05:31:16;14.20;99.90
9437;DHT22;4757;59.334;18.034;2022-09-09T05:33:45;14.20;99.90
9437;DHT22;4757;59.334;18.034;2022-09-09T05:36:14;14.20;99.90
9437;DHT22;4757;59.334;18.034;2022-09-09T05:38:42;14.20;99.90
9437;DHT22;4757;59.334;18.034;2022-09-09T05:41:10;14.30;99.90
9437;DHT22;4757;59.334;18.034;2022-09-09T05:43:38;14.30;99.90
9437;DHT22;4757;59.334;18.034;2022-09-09T05:46:07;14.30;99.90
9437;DHT22;4757;59.334;18.034;2022-09-09T05:48:36;14.40;99.90
9437;DHT22;4757;59.334;18.034;2022-09-09T05:51:06;14.40;99.90
9437;DHT22;4757;59.334;18.034;2022-09-09T05:53:36;14.40;99.90
9437;DHT22;4757;59.334;18.034;2022-09-09T05:56:06;14.40;99.90
9437;DHT22;4757;59.334;18.034;2022-09-09T05:58:34;14.50;99.90
9437;DHT22;4757;59.334;18.034;2022-09-09T06:01:39;14.50;99.90
9437;DHT22;4757;59.334;18.034;2022-09-09T06:03:59;14.90;99.90
9437;DHT22;4757;59.334;18.034;2022-09-09T06:06:31;15.30;99.90
9437;DHT22;4757;59.334;18.034;2022-09-09T06:08:59;15.80;99.90
9437;DHT22;4757;59.334;18.034;2022-09-09T06:11:29;16.10;99.90
9437;DHT22;4757;59.334;18.034;2022-09-09T06:13:59;16.20;99.90
9437;DHT22;4757;59.334;18.034;2022-09-09T06:16:28;16.90;99.90
9437;DHT22;4757;59.334;18.034;2022-09-09T06:18:57;17.20;99.90
9437;DHT22;4757;59.334;18.034;2022-09-09T06:21:35;17.20;99.90
9437;DHT22;4757;59.334;18.034;2022-09-09T06:24:04;17.50;99.90
9437;DHT22;4757;59.334;18.034;2022-09-09T06:26:37;17.90;99.90
9437;DHT22;4757;59.334;18.034;2022-09-09T06:29:08;17.50;99.90
9437;DHT22;4757;59.334;18.034;2022-09-09T06:31:36;17.80;99.90
9437;DHT22;4757;59.334;18.034;2022-09-09T06:34:07;17.70;99.90
9437;DHT22;4757;59.334;18.034;2022-09-09T06:36:36;17.60;99.90
9437;DHT22;4757;59.334;18.034;2022-09-09T06:39:05;17.60;99.90
9437;DHT22;4757;59.334;18.034;2022-09-09T06:41:39;17.70;99.90
9437;DHT22;4757;59.334;18.034;2022-09-09T06:44:06;17.30;99.90
9437;DHT22;4757;59.334;18.034;2022-09-09T06:46:33;16.40;99.90
9437;DHT22;4757;59.334;18.034;2022-09-09T06:49:02;16.70;99.90
9437;DHT22;4757;59.334;18.034;2022-09-09T06:51:32;17.00;99.90
9437;DHT22;4757;59.334;18.034;2022-09-09T06:54:01;17.10;99.90
9437;DHT22;4757;59.334;18.034;2022-09-09T06:56:34;17.20;99.90
9437;DHT22;4757;59.334;18.034;2022-09-09T06:59:04;17.90;99.90
9437;DHT22;4757;59.334;18.034;2022-09-09T07:01:34;18.20;99.90
9437;DHT22;4757;59.334;18.034;2022-09-09T07:04:03;19.30;99.90
9437;DHT22;4757;59.334;18.034;2022-09-09T07:06:37;19.10;99.90
9437;DHT22;4757;59.334;18.034;2022-09-09T07:09:06;18.50;99.90
9437;DHT22;4757;59.334;18.034;2022-09-09T07:11:38;19.00;99.90
9437;DHT22;4757;59.334;18.034;2022-09-09T07:14:06;18.20;99.90
9437;DHT22;4757;59.334;18.034;2022-09-09T07:16:34;18.60;99.90
9437;DHT22;4757;59.334;18.034;2022-09-09T07:19:04;17.90;99.90
9437;DHT22;4757;59.334;18.034;2022-09-09T07:21:32;17.30;99.90
9437;DHT22;4757;59.334;18.034;2022-09-09T07:24:00;17.40;99.90
9437;DHT22;4757;59.334;18.034;2022-09-09T07:26:29;17.00;99.90
9437;DHT22;4757;59.334;18.034;2022-09-09T07:28:57;17.20;99.90
9437;DHT22;4757;59.334;18.034;2022-09-09T07:31:29;17.20;99.90
9437;DHT22;4757;59.334;18.034;2022-09-09T07:33:59;17.60;99.90
9437;DHT22;4757;59.334;18.034;2022-09-09T07:36:29;17.60;99.90
9437;DHT22;4757;59.334;18.034;2022-09-09T07:39:05;17.70;99.90
9437;DHT22;4757;59.334;18.034;2022-09-09T07:41:37;17.40;99.90
9437;DHT22;4757;59.334;18.034;2022-09-09T07:44:10;17.90;99.90
9437;DHT22;4757;59.334;18.034;2022-09-09T07:46:38;17.90;99.90
9437;DHT22;4757;59.334;18.034;2022-09-09T07:49:09;17.10;99.90
9437;DHT22;4757;59.334;18.034;2022-09-09T07:51:39;16.40;99.90
9437;DHT22;4757;59.334;18.034;2022-09-09T07:54:10;15.80;99.90
9437;DHT22;4757;59.334;18.034;2022-09-09T07:56:39;15.90;99.90
9437;DHT22;4757;59.334;18.034;2022-09-09T07:59:07;16.20;99.90
9437;DHT22;4757;59.334;18.034;2022-09-09T08:01:45;16.60;99.90
9437;DHT22;4757;59.334;18.034;2022-09-09T08:04:18;16.80;99.90
9437;DHT22;4757;59.334;18.034;2022-09-09T08:06:48;16.60;99.90
9437;DHT22;4757;59.334;18.034;2022-09-09T08:09:16;17.00;99.90
9437;DHT22;4757;59.334;18.034;2022-09-09T08:11:44;16.80;99.90
9437;DHT22;4757;59.334;18.034;2022-09-09T08:14:12;16.20;99.90
9437;DHT22;4757;59.334;18.034;2022-09-09T08:16:42;16.00;99.90
9437;DHT22;4757;59.334;18.034;2022-09-09T08:19:10;16.10;99.90
9437;DHT22;4757;59.334;18.034;2022-09-09T08:21:39;16.80;99.90
9437;DHT22;4757;59.334;18.034;2022-09-09T08:24:09;16.60;99.90
9437;DHT22;4757;59.334;18.034;2022-09-09T08:26:45;16.60;99.90
9437;DHT22;4757;59.334;18.034;2022-09-09T08:29:13;16.30;99.90
9437;DHT22;4757;59.334;18.034;2022-09-09T08:34:13;16.40;99.90
9437;DHT22;4757;59.334;18.034;2022-09-09T08:36:42;16.40;99.90
9437;DHT22;4757;59.334;18.034;2022-09-09T08:39:12;16.40;99.90
9437;DHT22;4757;59.334;18.034;2022-09-09T08:57:53;15.60;99.90
9437;DHT22;4757;59.334;18.034;2022-09-09T09:00:22;15.90;99.90
9437;DHT22;4757;59.334;18.034;2022-09-09T09:09:24;15.90;99.90
9437;DHT22;4757;59.334;18.034;2022-09-09T09:11:57;16.10;99.90
9437;DHT22;4757;59.334;18.034;2022-09-09T09:14:29;16.20;99.90
9437;DHT22;4757;59.334;18.034;2022-09-09T09:17:17;16.20;99.90
9437;DHT22;4757;59.334;18.034;2022-09-09T09:19:44;16.00;99.90
9437;DHT22;4757;59.334;18.034;2022-09-09T09:25:18;15.90;99.90
9437;DHT22;4757;59.334;18.034;2022-09-09T09:28:13;15.90;99.90
9437;DHT22;4757;59.334;18.034;2022-09-09T09:31:09;15.70;99.90
9437;DHT22;4757;59.334;18.034;2022-09-09T09:33:50;15.90;99.90
9437;DHT22;4757;59.334;18.034;2022-09-09T09:36:40;15.80;99.90
9437;DHT22;4757;59.334;18.034;2022-09-09T09:39:08;15.90;99.90
9437;DHT22;4757;59.334;18.034;2022-09-09T09:41:56;15.90;99.90
9437;DHT22;4757;59.334;18.034;2022-09-09T09:44:29;15.90;99.90
9437;DHT22;4757;59.334;18.034;2022-09-09T09:47:16;15.90;99.90
9437;DHT22;4757;59.334;18.034;2022-09-09T09:49:59;16.00;99.90
9437;DHT22;4757;59.334;18.034;2022-09-09T09:52:31;16.40;99.90
9437;DHT22;4757;59.334;18.034;2022-09-09T09:54:59;15.80;99.90
9437;DHT22;4757;59.334;18.034;2022-09-09T09:57:33;15.80;99.90
9437;DHT22;4757;59.334;18.034;2022-09-09T10:00:22;16.10;99.90
9437;DHT22;4757;59.334;18.034;2022-09-09T10:02:50;16.00;99.90
9437;DHT22;4757;59.334;18.034;2022-09-09T10:05:30;16.30;99.90
9437;DHT22;4757;59.334;18.034;2022-09-09T10:19:00;16.00;99.90
9437;DHT22;4757;59.334;18.034;2022-09-09T10:24:23;15.60;99.90
9437;DHT22;4757;59.334;18.034;2022-09-09T10:27:05;15.50;99.90
9437;DHT22;4757;59.334;18.034;2022-09-09T10:32:36;15.50;99.90
9437;DHT22;4757;59.334;18.034;2022-09-09T10:40:34;15.90;99.90
9437;DHT22;4757;59.334;18.034;2022-09-09T10:48:40;15.80;99.90
9437;DHT22;4757;59.334;18.034;2022-09-09T10:51:50;16.00;99.90
9437;DHT22;4757;59.334;18.034;2022-09-09T10:57:03;15.90;99.90
9437;DHT22;4757;59.334;18.034;2022-09-09T10:59:38;16.10;99.90
9437;DHT22;4757;59.334;18.034;2022-09-09T11:02:27;16.10;99.90
9437;DHT22;4757;59.334;18.034;2022-09-09T11:05:20;16.00;99.90
9437;DHT22;4757;59.334;18.034;2022-09-09T11:07:56;15.90;99.90
9437;DHT22;4757;59.334;18.034;2022-09-09T11:13:19;15.60;99.90
9437;DHT22;4757;59.334;18.034;2022-09-09T11:15:55;15.70;99.90
9437;DHT22;4757;59.334;18.034;2022-09-09T11:18:24;15.60;99.90
9437;DHT22;4757;59.334;18.034;2022-09-09T11:20:59;15.90;99.90
9437;DHT22;4757;59.334;18.034;2022-09-09T11:23:41;15.80;99.90
9437;DHT22;4757;59.334;18.034;2022-09-09T11:26:18;15.70;99.90
9437;DHT22;4757;59.334;18.034;2022-09-09T11:31:46;15.90;99.90
9437;DHT22;4757;59.334;18.034;2022-09-09T11:34:53;16.00;99.90
9437;DHT22;4757;59.334;18.034;2022-09-09T11:37:45;15.60;99.90
9437;DHT22;4757;59.334;18.034;2022-09-09T11:40:24;15.50;99.90
9437;DHT22;4757;59.334;18.034;2022-09-09T11:43:09;15.60;99.90
9437;DHT22;4757;59.334;18.034;2022-09-09T11:45:42;15.80;99.90
9437;DHT22;4757;59.334;18.034;2022-09-09T11:48:27;15.90;99.90
9437;DHT22;4757;59.334;18.034;2022-09-09T11:51:04;15.80;99.90
9437;DHT22;4757;59.334;18.034;2022-09-09T11:53:59;15.80;99.90
9437;DHT22;4757;59.334;18.034;2022-09-09T11:59:18;15.70;99.90
9437;DHT22;4757;59.334;18.034;2022-09-09T12:01:59;15.70;99.90
9437;DHT22;4757;59.334;18.034;2022-09-09T12:04:49;15.80;99.90
9437;DHT22;4757;59.334;18.034;2022-09-09T12:07:30;15.70;99.90
9437;DHT22;4757;59.334;18.034;2022-09-09T12:12:30;15.70;99.90
9437;DHT22;4757;59.334;18.034;2022-09-09T12:17:49;15.90;99.90
9437;DHT22;4757;59.334;18.034;2022-09-09T12:20:21;15.80;99.90
9437;DHT22;4757;59.334;18.034;2022-09-09T12:25:57;16.10;99.90
9437;DHT22;4757;59.334;18.034;2022-09-09T12:28:54;16.00;99.90
9437;DHT22;4757;59.334;18.034;2022-09-09T12:31:41;16.10;99.90
9437;DHT22;4757;59.334;18.034;2022-09-09T12:34:54;17.00;99.90
9437;DHT22;4757;59.334;18.034;2022-09-09T12:39:45;16.20;99.90
9437;DHT22;4757;59.334;18.034;2022-09-09T12:42:21;16.50;99.90
9437;DHT22;4757;59.334;18.034;2022-09-09T12:44:58;17.10;99.90
9437;DHT22;4757;59.334;18.034;2022-09-09T12:47:54;17.70;99.90
9437;DHT22;4757;59.334;18.034;2022-09-09T12:50:46;18.00;99.90
9437;DHT22;4757;59.334;18.034;2022-09-09T12:56:04;18.00;99.90
9437;DHT22;4757;59.334;18.034;2022-09-09T12:58:36;17.30;99.90
9437;DHT22;4757;59.334;18.034;2022-09-09T13:01:05;17.10;99.90
9437;DHT22;4757;59.334;18.034;2022-09-09T13:03:33;16.90;99.90
9437;DHT22;4757;59.334;18.034;2022-09-09T13:06:18;17.00;99.90
9437;DHT22;4757;59.334;18.034;2022-09-09T13:08:46;16.90;99.90
9437;DHT22;4757;59.334;18.034;2022-09-09T13:11:17;17.70;99.90
9437;DHT22;4757;59.334;18.034;2022-09-09T13:13:52;18.00;99.90
9437;DHT22;4757;59.334;18.034;2022-09-09T13:16:34;18.50;99.90
9437;DHT22;4757;59.334;18.034;2022-09-09T13:19:14;18.80;99.90
9437;DHT22;4757;59.334;18.034;2022-09-09T13:21:43;18.10;99.90
9437;DHT22;4757;59.334;18.034;2022-09-09T13:24:39;18.10;99.90
9437;DHT22;4757;59.334;18.034;2022-09-09T13:29:54;17.70;99.90
9437;DHT22;4757;59.334;18.034;2022-09-09T13:32:26;16.90;99.90
9437;DHT22;4757;59.334;18.034;2022-09-09T13:34:56;17.00;99.90
9437;DHT22;4757;59.334;18.034;2022-09-09T13:37:35;17.20;99.90
9437;DHT22;4757;59.334;18.034;2022-09-09T13:40:04;16.70;99.90
9437;DHT22;4757;59.334;18.034;2022-09-09T13:42:36;16.60;99.90
9437;DHT22;4757;59.334;18.034;2022-09-09T13:45:05;17.10;99.90
9437;DHT22;4757;59.334;18.034;2022-09-09T13:47:34;16.80;99.90
9437;DHT22;4757;59.334;18.034;2022-09-09T13:50:22;17.00;99.90
9437;DHT22;4757;59.334;18.034;2022-09-09T13:52:52;16.80;99.90
9437;DHT22;4757;59.334;18.034;2022-09-09T13:55:22;16.30;99.90
9437;DHT22;4757;59.334;18.034;2022-09-09T13:58:01;16.30;99.90
9437;DHT22;4757;59.334;18.034;2022-09-09T14:00:33;16.20;99.90
9437;DHT22;4757;59.334;18.034;2022-09-09T14:03:01;16.40;99.90
9437;DHT22;4757;59.334;18.034;2022-09-09T14:05:31;16.10;99.90
9437;DHT22;4757;59.334;18.034;2022-09-09T14:08:00;16.40;99.90
9437;DHT22;4757;59.334;18.034;2022-09-09T14:10:27;16.40;99.90
9437;DHT22;4757;59.334;18.034;2022-09-09T14:12:54;16.50;99.90
9437;DHT22;4757;59.334;18.034;2022-09-09T14:15:23;16.30;99.90
9437;DHT22;4757;59.334;18.034;2022-09-09T14:17:50;16.40;99.90
9437;DHT22;4757;59.334;18.034;2022-09-09T14:20:19;16.30;99.90
9437;DHT22;4757;59.334;18.034;2022-09-09T14:22:46;15.90;99.90
9437;DHT22;4757;59.334;18.034;2022-09-09T14:25:13;15.70;99.90
9437;DHT22;4757;59.334;18.034;2022-09-09T14:27:40;15.70;99.90
9437;DHT22;4757;59.334;18.034;2022-09-09T14:30:10;16.00;99.90
9437;DHT22;4757;59.334;18.034;2022-09-09T14:32:37;16.10;99.90
9437;DHT22;4757;59.334;18.034;2022-09-09T14:35:04;16.10;99.90
9437;DHT22;4757;59.334;18.034;2022-09-09T14:37:31;15.80;99.90
9437;DHT22;4757;59.334;18.034;2022-09-09T14:39:58;15.70;99.90
9437;DHT22;4757;59.334;18.034;2022-09-09T14:42:25;15.90;99.90
9437;DHT22;4757;59.334;18.034;2022-09-09T14:44:53;15.60;99.90
9437;DHT22;4757;59.334;18.034;2022-09-09T14:47:20;15.60;99.90
9437;DHT22;4757;59.334;18.034;2022-09-09T14:49:48;15.60;99.90
9437;DHT22;4757;59.334;18.034;2022-09-09T14:52:18;15.60;99.90
9437;DHT22;4757;59.334;18.034;2022-09-09T14:54:47;15.70;99.90
9437;DHT22;4757;59.334;18.034;2022-09-09T14:57:14;15.60;99.90
9437;DHT22;4757;59.334;18.034;2022-09-09T14:59:41;15.50;99.90
9437;DHT22;4757;59.334;18.034;2022-09-09T15:02:10;15.60;99.90
9437;DHT22;4757;59.334;18.034;2022-09-09T15:04:40;15.60;99.90
9437;DHT22;4757;59.334;18.034;2022-09-09T15:07:08;15.60;99.90
9437;DHT22;4757;59.334;18.034;2022-09-09T15:09:39;15.50;99.90
9437;DHT22;4757;59.334;18.034;2022-09-09T15:12:07;15.50;99.90
9437;DHT22;4757;59.334;18.034;2022-09-09T15:14:34;15.40;99.90
9437;DHT22;4757;59.334;18.034;2022-09-09T15:17:02;15.30;99.90
9437;DHT22;4757;59.334;18.034;2022-09-09T15:19:29;15.30;99.90
9437;DHT22;4757;59.334;18.034;2022-09-09T15:21:56;15.30;99.90
9437;DHT22;4757;59.334;18.034;2022-09-09T15:24:24;15.20;99.90
9437;DHT22;4757;59.334;18.034;2022-09-09T15:26:52;15.20;99.90
9437;DHT22;4757;59.334;18.034;2022-09-09T15:29:20;15.30;99.90
9437;DHT22;4757;59.334;18.034;2022-09-09T15:31:48;15.10;99.90
9437;DHT22;4757;59.334;18.034;2022-09-09T15:34:14;15.10;99.90
9437;DHT22;4757;59.334;18.034;2022-09-09T15:36:44;15.20;99.90
9437;DHT22;4757;59.334;18.034;2022-09-09T15:39:15;15.20;99.90
9437;DHT22;4757;59.334;18.034;2022-09-09T15:41:47;15.10;99.90
9437;DHT22;4757;59.334;18.034;2022-09-09T15:44:15;15.10;99.90
9437;DHT22;4757;59.334;18.034;2022-09-09T15:46:45;15.00;99.90
9437;DHT22;4757;59.334;18.034;2022-09-09T15:49:18;14.90;99.90
9437;DHT22;4757;59.334;18.034;2022-09-09T15:51:47;14.80;99.90
9437;DHT22;4757;59.334;18.034;2022-09-09T15:54:19;14.80;99.90
9437;DHT22;4757;59.334;18.034;2022-09-09T15:56:54;14.80;99.90
9437;DHT22;4757;59.334;18.034;2022-09-09T15:59:23;14.90;99.90
9437;DHT22;4757;59.334;18.034;2022-09-09T16:01:54;14.90;99.90
9437;DHT22;4757;59.334;18.034;2022-09-09T16:04:25;14.80;99.90
9437;DHT22;4757;59.334;18.034;2022-09-09T16:07:01;14.90;99.90
9437;DHT22;4757;59.334;18.034;2022-09-09T16:09:29;14.80;99.90
9437;DHT22;4757;59.334;18.034;2022-09-09T16:12:01;15.00;99.90
9437;DHT22;4757;59.334;18.034;2022-09-09T16:14:28;14.90;99.90
9437;DHT22;4757;59.334;18.034;2022-09-09T16:17:01;14.90;99.90
9437;DHT22;4757;59.334;18.034;2022-09-09T16:19:28;14.90;99.90
9437;DHT22;4757;59.334;18.034;2022-09-09T16:21:55;14.80;99.90
9437;DHT22;4757;59.334;18.034;2022-09-09T16:24:23;14.80;99.90
9437;DHT22;4757;59.334;18.034;2022-09-09T16:26:52;14.70;99.90
9437;DHT22;4757;59.334;18.034;2022-09-09T16:29:20;14.80;99.90
9437;DHT22;4757;59.334;18.034;2022-09-09T16:31:54;14.60;99.90
9437;DHT22;4757;59.334;18.034;2022-09-09T16:34:28;14.70;99.90
9437;DHT22;4757;59.334;18.034;2022-09-09T16:36:55;14.70;99.90
9437;DHT22;4757;59.334;18.034;2022-09-09T16:39:22;14.60;99.90
9437;DHT22;4757;59.334;18.034;2022-09-09T16:41:49;14.60;99.90
9437;DHT22;4757;59.334;18.034;2022-09-09T16:44:17;14.60;99.90
9437;DHT22;4757;59.334;18.034;2022-09-09T16:46:48;14.50;99.90
9437;DHT22;4757;59.334;18.034;2022-09-09T16:49:26;14.50;99.90
9437;DHT22;4757;59.334;18.034;2022-09-09T16:51:56;14.50;99.90
9437;DHT22;4757;59.334;18.034;2022-09-09T16:54:24;14.40;99.90
9437;DHT22;4757;59.334;18.034;2022-09-09T16:56:54;14.50;99.90
9437;DHT22;4757;59.334;18.034;2022-09-09T16:59:21;14.50;99.90
9437;DHT22;4757;59.334;18.034;2022-09-09T17:01:51;14.40;99.90
9437;DHT22;4757;59.334;18.034;2022-09-09T17:04:25;14.30;99.90
9437;DHT22;4757;59.334;18.034;2022-09-09T17:06:54;14.30;99.90
9437;DHT22;4757;59.334;18.034;2022-09-09T17:09:22;14.30;99.90
9437;DHT22;4757;59.334;18.034;2022-09-09T17:11:51;14.20;99.90
9437;DHT22;4757;59.334;18.034;2022-09-09T17:14:20;14.20;99.90
9437;DHT22;4757;59.334;18.034;2022-09-09T17:16:48;14.20;99.90
9437;DHT22;4757;59.334;18.034;2022-09-09T17:19:16;14.10;99.90
9437;DHT22;4757;59.334;18.034;2022-09-09T17:21:43;14.10;99.90
9437;DHT22;4757;59.334;18.034;2022-09-09T17:24:30;14.00;99.90
9437;DHT22;4757;59.334;18.034;2022-09-09T17:26:57;14.10;99.90
9437;DHT22;4757;59.334;18.034;2022-09-09T17:29:25;14.00;99.90
9437;DHT22;4757;59.334;18.034;2022-09-09T17:31:52;14.00;99.90
9437;DHT22;4757;59.334;18.034;2022-09-09T17:34:19;14.00;99.90
9437;DHT22;4757;59.334;18.034;2022-09-09T17:36:46;14.10;99.90
9437;DHT22;4757;59.334;18.034;2022-09-09T17:39:13;14.00;99.90
9437;DHT22;4757;59.334;18.034;2022-09-09T17:41:40;14.00;99.90
9437;DHT22;4757;59.334;18.034;2022-09-09T17:44:08;14.00;99.90
9437;DHT22;4757;59.334;18.034;2022-09-09T17:46:38;14.00;99.90
9437;DHT22;4757;59.334;18.034;2022-09-09T17:49:13;14.00;99.90
9437;DHT22;4757;59.334;18.034;2022-09-09T17:51:41;13.90;99.90
9437;DHT22;4757;59.334;18.034;2022-09-09T17:54:14;13.90;99.90
9437;DHT22;4757;59.334;18.034;2022-09-09T17:56:42;13.90;99.90
9437;DHT22;4757;59.334;18.034;2022-09-09T17:59:12;13.80;99.90
9437;DHT22;4757;59.334;18.034;2022-09-09T18:01:42;13.80;99.90
9437;DHT22;4757;59.334;18.034;2022-09-09T18:04:15;13.80;99.90
9437;DHT22;4757;59.334;18.034;2022-09-09T18:06:45;13.70;99.90
9437;DHT22;4757;59.334;18.034;2022-09-09T18:09:17;13.80;99.90
9437;DHT22;4757;59.334;18.034;2022-09-09T18:11:48;13.70;99.90
9437;DHT22;4757;59.334;18.034;2022-09-09T18:14:19;13.70;99.90
9437;DHT22;4757;59.334;18.034;2022-09-09T18:16:48;13.70;99.90
9437;DHT22;4757;59.334;18.034;2022-09-09T18:19:20;13.80;99.90
9437;DHT22;4757;59.334;18.034;2022-09-09T18:21:53;13.80;99.90
9437;DHT22;4757;59.334;18.034;2022-09-09T18:24:25;13.70;99.90
9437;DHT22;4757;59.334;18.034;2022-09-09T18:26:56;13.70;99.90
9437;DHT22;4757;59.334;18.034;2022-09-09T18:29:24;13.60;99.90
9437;DHT22;4757;59.334;18.034;2022-09-09T18:31:53;13.70;99.90